createdAt,value
2022-09-06T00:00:29.451Z,0
2022-09-06T00:01:27.883Z,0
2022-09-06T00:02:25.402Z,0
2022-09-06T00:03:26.734Z,0
2022-09-06T00:04:22.639Z,0
2022-09-06T00:05:30.024Z,0
2022-09-06T00:06:24.754Z,0
2022-09-06T00:07:24.162Z,0
2022-09-06T00:08:30.614Z,0
2022-09-06T00:09:24.182Z,0
2022-09-06T00:10:19.556Z,0
2022-09-06T00:11:23.472Z,0
2022-09-06T00:12:25.872Z,0
2022-09-06T00:13:23.914Z,0
2022-09-06T00:14:29.589Z,0
2022-09-06T00:15:21.071Z,0
2022-09-06T00:16:27.261Z,0
2022-09-06T00:17:19.957Z,0
2022-09-06T00:18:24.019Z,0
2022-09-06T00:19:25.758Z,0
2022-09-06T00:20:25.915Z,0
2022-09-06T00:21:28.805Z,0
2022-09-06T00:22:24.747Z,0
2022-09-06T00:23:23.818Z,0
2022-09-06T00:24:19.946Z,0
2022-09-06T00:25:28.146Z,0
2022-09-06T00:26:29.075Z,0
2022-09-06T00:27:23.804Z,0
2022-09-06T00:28:26.781Z,0
2022-09-06T00:29:27.709Z,0
2022-09-06T00:30:23.785Z,0
2022-09-06T00:31:22.579Z,0
2022-09-06T00:32:34.888Z,0
2022-09-06T00:33:26.959Z,0
2022-09-06T00:34:23.387Z,0
2022-09-06T00:35:33.304Z,0
2022-09-06T00:36:31.634Z,0
2022-09-06T00:37:26.307Z,0
2022-09-06T00:38:24.238Z,0
2022-09-06T00:39:21.011Z,0
2022-09-06T00:40:28.421Z,0
2022-09-06T00:41:22.587Z,0
2022-09-06T00:42:33.546Z,0
2022-09-06T00:43:28.224Z,0
2022-09-06T00:44:23.747Z,0
2022-09-06T00:45:31.349Z,0
2022-09-06T00:46:29.505Z,0
2022-09-06T00:47:27.419Z,0
2022-09-06T00:48:26.947Z,0
2022-09-06T00:49:34.883Z,0
2022-09-06T00:50:29.704Z,0
2022-09-06T00:51:27.356Z,0
2022-09-06T00:52:20.445Z,0
2022-09-06T00:53:31.534Z,0
2022-09-06T00:54:26.180Z,0
2022-09-06T00:55:21.704Z,0
2022-09-06T00:56:24.803Z,0
2022-09-06T00:57:28.039Z,0
2022-09-06T00:58:27.982Z,0
2022-09-06T00:59:19.706Z,0
2022-09-06T01:00:32.628Z,0
2022-09-06T01:01:33.599Z,0
2022-09-06T01:54:30.591Z,0
2022-09-06T01:55:22.392Z,0
2022-09-06T01:56:30.480Z,0
2022-09-06T01:57:27.524Z,0
2022-09-06T01:58:24.578Z,0
2022-09-06T01:59:45.969Z,0
2022-09-06T02:48:37.481Z,0
2022-09-06T02:49:30.351Z,0
2022-09-06T02:50:31.240Z,0
2022-09-06T02:51:21.269Z,0
2022-09-06T02:52:32.892Z,0
2022-09-06T02:53:33.831Z,0
2022-09-06T02:54:50.357Z,0
2022-09-06T02:55:36.268Z,0
2022-09-06T02:56:30.762Z,0
2022-09-06T02:57:26.400Z,0
2022-09-06T02:58:22.540Z,0
2022-09-06T02:59:31.818Z,0
2022-09-06T03:00:26.753Z,0
2022-09-06T03:01:24.430Z,0
2022-09-06T03:02:31.843Z,0
2022-09-06T03:03:29.133Z,0
2022-09-06T03:04:27.045Z,0
2022-09-06T03:05:22.397Z,0
2022-09-06T03:06:29.765Z,0
2022-09-06T03:07:26.915Z,0
2022-09-06T03:08:25.032Z,0
2022-09-06T03:09:21.340Z,0
2022-09-06T03:10:32.160Z,0
2022-09-06T03:11:25.845Z,0
2022-09-06T03:12:27.778Z,0
2022-09-06T03:13:29.649Z,0
2022-09-06T03:14:27.446Z,0
2022-09-06T03:15:23.984Z,0
2022-09-06T03:16:26.673Z,0
2022-09-06T03:17:27.758Z,0
2022-09-06T03:18:27.260Z,0
2022-09-06T03:19:35.825Z,0
2022-09-06T03:20:20.369Z,0
2022-09-06T03:21:28.670Z,0
2022-09-06T03:22:27.794Z,0
2022-09-06T03:23:20.829Z,0
2022-09-06T03:24:23.071Z,0
2022-09-06T03:25:23.806Z,0
2022-09-06T03:26:20.614Z,0
2022-09-06T03:27:24.218Z,0
2022-09-06T03:28:33.315Z,0
2022-09-06T03:29:21.962Z,0
2022-09-06T03:30:23.308Z,0
2022-09-06T03:31:30.680Z,0
2022-09-06T03:32:20.147Z,0
2022-09-06T03:33:22.502Z,0
2022-09-06T03:34:29.667Z,0
2022-09-06T03:35:25.453Z,0
2022-09-06T03:36:21.849Z,0
2022-09-06T03:37:43.179Z,0
2022-09-06T03:38:27.823Z,0
2022-09-06T03:39:24.747Z,0
2022-09-06T03:40:22.323Z,0
2022-09-06T03:41:21.035Z,0
2022-09-06T03:42:25.595Z,0
2022-09-06T03:43:23.110Z,0
2022-09-06T03:44:41.114Z,0
2022-09-06T03:45:30.109Z,0
2022-09-06T03:46:23.696Z,0
2022-09-06T03:47:23.094Z,0
2022-09-06T03:48:24.460Z,0
2022-09-06T03:49:25.410Z,0
2022-09-06T03:50:30.768Z,0
2022-09-06T03:51:36.445Z,0
2022-09-06T03:52:27.911Z,0
2022-09-06T03:53:26.390Z,0
2022-09-06T03:54:20.062Z,0
2022-09-06T03:55:32.056Z,0
2022-09-06T03:56:27.113Z,0
2022-09-06T03:57:21.620Z,0
2022-09-06T03:58:36.041Z,0
2022-09-06T03:59:22.123Z,0
2022-09-06T04:00:27.400Z,0
2022-09-06T04:01:26.027Z,0
2022-09-06T04:02:22.546Z,0
2022-09-06T04:03:28.028Z,0
2022-09-06T04:04:22.989Z,0
2022-09-06T04:05:28.211Z,0
2022-09-06T04:06:29.255Z,0
2022-09-06T04:07:37.578Z,0
2022-09-06T04:08:19.526Z,0
2022-09-06T04:09:27.714Z,0
2022-09-06T04:10:23.109Z,0
2022-09-06T04:11:22.000Z,0
2022-09-06T04:12:28.303Z,0
2022-09-06T04:13:20.527Z,0
2022-09-06T04:14:29.048Z,0
2022-09-06T04:15:20.075Z,0
2022-09-06T04:16:33.139Z,0
2022-09-06T04:17:27.706Z,0
2022-09-06T04:18:25.197Z,0
2022-09-06T04:19:38.277Z,0
2022-09-06T04:20:24.160Z,0
2022-09-06T04:21:27.969Z,0
2022-09-06T04:22:20.022Z,0
2022-09-06T04:23:32.285Z,0
2022-09-06T04:24:27.966Z,0
2022-09-06T04:25:24.168Z,0
2022-09-06T04:26:33.829Z,0
2022-09-06T04:27:28.211Z,0
2022-09-06T04:28:26.416Z,0
2022-09-06T04:29:19.784Z,0
2022-09-06T04:30:33.591Z,0
2022-09-06T04:31:25.934Z,0
2022-09-06T04:32:21.896Z,0
2022-09-06T04:33:31.793Z,0
2022-09-06T04:34:29.431Z,0
2022-09-06T04:35:26.051Z,0
2022-09-06T04:36:20.206Z,0
2022-09-06T04:37:30.934Z,0
2022-09-06T04:38:25.705Z,0
2022-09-06T04:39:22.546Z,0
2022-09-06T04:40:24.484Z,0
2022-09-06T04:41:38.563Z,0
2022-09-06T04:42:25.509Z,0
2022-09-06T04:43:22.658Z,0
2022-09-06T04:44:30.890Z,0
2022-09-06T04:45:28.922Z,0
2022-09-06T04:46:24.225Z,0
2022-09-06T04:47:28.877Z,0
2022-09-06T04:48:27.556Z,0
2022-09-06T04:49:26.205Z,0
2022-09-06T04:50:19.787Z,0
2022-09-06T04:51:33.495Z,0
2022-09-06T04:52:30.085Z,0
2022-09-06T04:53:22.006Z,0
2022-09-06T04:54:31.900Z,0
2022-09-06T04:55:25.214Z,0
2022-09-06T04:56:24.082Z,0
2022-09-06T04:57:20.292Z,0
2022-09-06T04:58:24.711Z,0
2022-09-06T04:59:26.726Z,0
2022-09-06T05:00:24.329Z,0
2022-09-06T05:01:35.818Z,0
2022-09-06T05:02:28.166Z,0
2022-09-06T05:03:25.948Z,0
2022-09-06T05:04:19.817Z,0
2022-09-06T05:05:32.229Z,0
2022-09-06T05:06:20.538Z,0
2022-09-06T05:07:21.815Z,0
2022-09-06T05:08:33.874Z,0
2022-09-06T05:09:28.087Z,0
2022-09-06T05:10:28.098Z,0
2022-09-06T05:11:20.814Z,0
2022-09-06T05:12:33.929Z,0
2022-09-06T05:13:27.688Z,0
2022-09-06T05:14:23.693Z,0
2022-09-06T05:15:25.524Z,0
2022-09-06T05:16:28.089Z,0
2022-09-06T05:17:25.676Z,0
2022-09-06T05:18:24.295Z,0
2022-09-06T05:19:32.254Z,0
2022-09-06T05:20:30.038Z,0
2022-09-06T05:21:23.647Z,0
2022-09-06T05:22:25.889Z,0
2022-09-06T05:23:31.127Z,0
2022-09-06T05:24:25.152Z,0
2022-09-06T05:25:21.402Z,0
2022-09-06T05:26:31.226Z,0
2022-09-06T05:27:25.966Z,0
2022-09-06T05:28:21.973Z,0
2022-09-06T05:29:30.670Z,0
2022-09-06T05:30:31.233Z,0
2022-09-06T05:31:21.996Z,0
2022-09-06T05:32:23.625Z,0
2022-09-06T05:33:30.349Z,0
2022-09-06T05:34:26.013Z,0
2022-09-06T05:35:22.567Z,0
2022-09-06T05:36:23.123Z,0
2022-09-06T05:37:28.965Z,0
2022-09-06T05:38:24.143Z,0
2022-09-06T05:39:21.958Z,0
2022-09-06T05:40:31.246Z,0
2022-09-06T05:41:21.664Z,0
2022-09-06T05:42:22.049Z,0
2022-09-06T05:43:27.303Z,0
2022-09-06T05:44:20.658Z,0
2022-09-06T05:45:25.883Z,0
2022-09-06T05:46:22.143Z,0
2022-09-06T05:47:31.741Z,0
2022-09-06T05:48:25.776Z,0
2022-09-06T05:49:21.831Z,0
2022-09-06T05:50:32.186Z,0
2022-09-06T05:51:26.564Z,0
2022-09-06T05:52:23.840Z,0
2022-09-06T05:53:22.418Z,0
2022-09-06T05:54:31.219Z,0
2022-09-06T05:55:26.334Z,0
2022-09-06T05:56:21.899Z,0
2022-09-06T05:57:36.573Z,0
2022-09-06T05:58:30.098Z,0
2022-09-06T05:59:20.228Z,0
2022-09-06T06:00:20.929Z,0
2022-09-06T06:01:31.439Z,0
2022-09-06T06:02:21.633Z,0
2022-09-06T06:03:21.849Z,0
2022-09-06T06:04:31.960Z,0
2022-09-06T06:05:27.174Z,0
2022-09-06T06:06:28.668Z,0
2022-09-06T06:07:19.876Z,0
2022-09-06T06:08:32.471Z,0
2022-09-06T06:09:27.916Z,0
2022-09-06T06:10:21.688Z,0
2022-09-06T06:11:23.567Z,0
2022-09-06T06:12:28.203Z,0
2022-09-06T06:13:23.779Z,0
2022-09-06T06:14:21.399Z,0
2022-09-06T06:15:30.053Z,0
2022-09-06T06:16:21.941Z,0
2022-09-06T06:17:21.657Z,0
2022-09-06T06:18:27.309Z,0
2022-09-06T06:19:23.944Z,0
2022-09-06T06:20:24.095Z,0
2022-09-06T06:21:19.716Z,0
2022-09-06T06:22:26.659Z,0
2022-09-06T06:23:27.905Z,0
2022-09-06T06:24:23.248Z,0
2022-09-06T06:25:31.834Z,0
2022-09-06T06:26:26.240Z,0
2022-09-06T06:27:25.106Z,0
2022-09-06T06:28:19.818Z,0
2022-09-06T06:29:25.570Z,0
2022-09-06T06:30:28.597Z,0
2022-09-06T06:31:23.577Z,0
2022-09-06T06:32:35.897Z,0
2022-09-06T06:33:23.705Z,0
2022-09-06T06:34:23.979Z,0
2022-09-06T06:35:20.609Z,0
2022-09-06T06:36:30.566Z,0
2022-09-06T06:37:26.011Z,0
2022-09-06T06:38:23.087Z,0
2022-09-06T06:39:28.708Z,0
2022-09-06T06:40:30.660Z,0
2022-09-06T06:41:25.894Z,0
2022-09-06T06:42:24.730Z,0
2022-09-06T06:43:30.287Z,0
2022-09-06T06:44:27.211Z,0
2022-09-06T06:45:22.492Z,0
2022-09-06T06:46:35.842Z,0
2022-09-06T06:47:32.562Z,0
2022-09-06T06:48:24.066Z,0
2022-09-06T06:49:22.721Z,0
2022-09-06T06:50:25.444Z,0
2022-09-06T06:51:27.320Z,0
2022-09-06T06:52:27.409Z,0
2022-09-06T06:53:37.299Z,0
2022-09-06T06:54:30.205Z,0
2022-09-06T06:55:26.723Z,0
2022-09-06T06:56:19.880Z,0
2022-09-06T06:57:20.858Z,0
2022-09-06T06:58:25.860Z,0
2022-09-06T06:59:25.619Z,0
2022-09-06T07:00:37.197Z,0
2022-09-06T07:01:23.001Z,0
2022-09-06T07:02:26.176Z,0
2022-09-06T07:03:20.161Z,0
2022-09-06T07:04:26.877Z,0
2022-09-06T07:06:12.809Z,0
2022-09-06T07:07:36.756Z,0
2022-09-06T07:07:41.094Z,0
2022-09-06T07:08:29.515Z,0
2022-09-06T07:09:23.800Z,0
2022-09-06T07:10:38.060Z,0
2022-09-06T07:11:31.835Z,0
2022-09-06T07:12:22.856Z,0
2022-09-06T07:13:23.856Z,0
2022-09-06T07:14:29.502Z,0
2022-09-06T07:15:30.646Z,0
2022-09-06T07:16:35.227Z,0
2022-09-06T07:17:19.841Z,0
2022-09-06T07:18:21.155Z,0
2022-09-06T07:20:17.116Z,0
2022-09-06T07:20:21.945Z,0
2022-09-06T07:21:39.467Z,0
2022-09-06T07:22:25.009Z,0
2022-09-06T07:24:06.839Z,0
2022-09-06T07:24:22.107Z,0
2022-09-06T07:25:23.145Z,0
2022-09-06T07:26:27.600Z,0
2022-09-06T07:27:59.041Z,0
2022-09-06T07:28:32.943Z,0
2022-09-06T07:29:29.418Z,0
2022-09-06T07:30:26.927Z,0
2022-09-06T07:32:15.471Z,0
2022-09-06T07:32:27.169Z,0
2022-09-06T07:33:26.382Z,0
2022-09-06T07:34:22.772Z,0
2022-09-06T07:35:22.490Z,0
2022-09-06T07:36:21.145Z,0
2022-09-06T07:37:27.773Z,0
2022-09-06T07:38:19.980Z,0
2022-09-06T07:39:29.980Z,0
2022-09-06T07:40:26.991Z,0
2022-09-06T07:41:22.063Z,0
2022-09-06T07:42:24.966Z,0
2022-09-06T07:43:24.276Z,0
2022-09-06T07:44:24.072Z,0
2022-09-06T07:45:20.112Z,0
2022-09-06T07:46:24.786Z,0
2022-09-06T07:48:01.150Z,0
2022-09-06T07:48:22.517Z,0
2022-09-06T07:49:34.202Z,0
2022-09-06T07:50:59.103Z,0
2022-09-06T07:51:24.139Z,0
2022-09-06T07:53:14.858Z,0
2022-09-06T07:53:31.670Z,0
2022-09-06T07:54:30.814Z,0
2022-09-06T07:55:23.692Z,0
2022-09-06T07:56:33.705Z,0
2022-09-06T07:57:21.291Z,0
2022-09-06T07:58:26.862Z,1
2022-09-06T07:59:21.062Z,0
2022-09-06T08:00:23.016Z,0
2022-09-06T08:01:25.958Z,0
2022-09-06T08:02:21.919Z,0
2022-09-06T08:03:25.348Z,2
2022-09-06T08:04:30.507Z,1
2022-09-06T08:06:14.487Z,0
2022-09-06T08:06:21.967Z,1
2022-09-06T08:07:43.572Z,1
2022-09-06T08:09:06.084Z,0
2022-09-06T08:09:22.260Z,0
2022-09-06T08:10:32.371Z,0
2022-09-06T08:11:29.301Z,0
2022-09-06T08:12:26.325Z,0
2022-09-06T08:13:21.707Z,0
2022-09-06T08:14:22.361Z,0
2022-09-06T08:15:24.720Z,0
2022-09-06T08:16:22.724Z,0
2022-09-06T08:17:34.607Z,0
2022-09-06T08:18:34.558Z,0
2022-09-06T08:19:31.159Z,0
2022-09-06T08:20:20.125Z,0
2022-09-06T08:21:33.330Z,0
2022-09-06T08:22:28.536Z,0
2022-09-06T08:23:22.916Z,0
2022-09-06T08:24:32.530Z,0
2022-09-06T08:25:20.883Z,0
2022-09-06T08:26:23.727Z,0
2022-09-06T08:27:22.474Z,0
2022-09-06T08:28:25.590Z,0
2022-09-06T08:29:26.209Z,0
2022-09-06T08:30:24.345Z,0
2022-09-06T08:31:28.091Z,0
2022-09-06T08:32:28.134Z,0
2022-09-06T08:33:23.772Z,0
2022-09-06T08:34:20.084Z,0
2022-09-06T08:35:24.769Z,0
2022-09-06T08:36:27.866Z,0
2022-09-06T08:37:24.988Z,0
2022-09-06T08:38:25.202Z,0
2022-09-06T08:39:31.211Z,0
2022-09-06T08:40:28.132Z,0
2022-09-06T08:41:22.720Z,0
2022-09-06T08:42:25.851Z,0
2022-09-06T08:43:23.532Z,0
2022-09-06T08:44:58.099Z,0
2022-09-06T08:45:27.014Z,0
2022-09-06T08:46:29.200Z,0
2022-09-06T08:47:26.901Z,0
2022-09-06T08:48:19.730Z,0
2022-09-06T08:49:29.983Z,0
2022-09-06T08:50:28.490Z,0
2022-09-06T08:51:22.256Z,2
2022-09-06T08:52:22.492Z,1
2022-09-06T08:53:21.035Z,0
2022-09-06T08:54:24.652Z,0
2022-09-06T08:55:20.217Z,4
2022-09-06T08:56:30.500Z,3
2022-09-06T08:57:26.015Z,2
2022-09-06T08:58:24.336Z,2
2022-09-06T08:59:34.932Z,3
2022-09-06T09:00:29.440Z,4
2022-09-06T09:01:27.867Z,3
2022-09-06T09:02:25.234Z,1
2022-09-06T09:03:31.398Z,0
2022-09-06T09:04:40.198Z,0
2022-09-06T09:05:25.483Z,0
2022-09-06T09:06:20.143Z,2
2022-09-06T09:07:28.905Z,3
2022-09-06T09:08:24.107Z,3
2022-09-06T09:09:23.623Z,2
2022-09-06T09:10:22.487Z,1
2022-09-06T09:11:25.948Z,2
2022-09-06T09:12:22.301Z,4
2022-09-06T09:13:24.375Z,3
2022-09-06T09:14:27.830Z,1
2022-09-06T09:15:27.153Z,0
2022-09-06T09:16:21.328Z,2
2022-09-06T09:17:25.704Z,2
2022-09-06T09:18:25.822Z,2
2022-09-06T09:19:24.701Z,2
2022-09-06T09:20:30.622Z,2
2022-09-06T09:21:29.579Z,1
2022-09-06T09:22:23.871Z,4
2022-09-06T09:23:19.924Z,1
2022-09-06T09:24:32.065Z,0
2022-09-06T09:25:25.740Z,1
2022-09-06T09:26:23.287Z,2
2022-09-06T09:27:22.162Z,2
2022-09-06T09:28:22.904Z,0
2022-09-06T09:29:27.956Z,0
2022-09-06T09:30:57.953Z,2
2022-09-06T09:31:22.075Z,4
2022-09-06T09:32:27.291Z,3
2022-09-06T09:33:23.028Z,2
2022-09-06T09:34:37.240Z,1
2022-09-06T09:35:31.549Z,1
2022-09-06T09:36:26.338Z,2
2022-09-06T09:37:58.140Z,2
2022-09-06T09:38:24.803Z,3
2022-09-06T09:39:21.967Z,2
2022-09-06T09:40:21.792Z,2
2022-09-06T09:41:34.697Z,2
2022-09-06T09:42:28.447Z,5
2022-09-06T09:43:24.309Z,5
2022-09-06T09:44:24.492Z,5
2022-09-06T09:45:31.658Z,3
2022-09-06T09:46:26.258Z,2
2022-09-06T09:47:26.668Z,3
2022-09-06T09:48:34.259Z,4
2022-09-06T09:49:28.113Z,3
2022-09-06T09:50:26.816Z,2
2022-09-06T09:51:26.269Z,3
2022-09-06T09:52:32.305Z,3
2022-09-06T09:53:26.123Z,3
2022-09-06T09:54:24.335Z,1
2022-09-06T09:55:25.733Z,0
2022-09-06T09:56:29.578Z,0
2022-09-06T09:57:24.372Z,1
2022-09-06T09:58:21.855Z,1
2022-09-06T09:59:22.446Z,3
2022-09-06T10:00:29.341Z,3
2022-09-06T10:01:22.943Z,4
2022-09-06T10:02:36.410Z,5
2022-09-06T10:03:28.157Z,4
2022-09-06T10:05:00.385Z,4
2022-09-06T10:05:22.061Z,4
2022-09-06T10:07:08.158Z,2
2022-09-06T10:07:26.025Z,3
2022-09-06T10:08:22.141Z,3
2022-09-06T10:09:31.912Z,3
2022-09-06T10:10:30.061Z,1
2022-09-06T10:11:24.065Z,0
2022-09-06T10:12:20.330Z,1
2022-09-06T10:13:31.544Z,2
2022-09-06T10:14:22.867Z,2
2022-09-06T10:15:27.224Z,5
2022-09-06T10:16:23.766Z,6
2022-09-06T10:17:28.809Z,4
2022-09-06T10:18:24.300Z,1
2022-09-06T10:19:20.784Z,1
2022-09-06T10:20:30.755Z,1
2022-09-06T10:21:28.087Z,1
2022-09-06T10:22:22.046Z,2
2022-09-06T10:24:31.044Z,1
2022-09-06T10:24:31.243Z,0
2022-09-06T10:25:26.477Z,0
2022-09-06T10:26:20.692Z,0
2022-09-06T10:27:31.647Z,3
2022-09-06T10:28:26.097Z,5
2022-09-06T10:29:26.776Z,3
2022-09-06T10:30:33.357Z,1
2022-09-06T10:31:24.939Z,0
2022-09-06T10:32:25.617Z,0
2022-09-06T10:33:20.267Z,0
2022-09-06T10:34:32.755Z,0
2022-09-06T10:35:27.700Z,0
2022-09-06T10:36:24.557Z,2
2022-09-06T10:37:23.320Z,3
2022-09-06T10:38:28.870Z,2
2022-09-06T10:39:25.570Z,4
2022-09-06T10:40:22.056Z,6
2022-09-06T10:41:30.259Z,5
2022-09-06T10:42:25.950Z,1
2022-09-06T10:43:23.304Z,0
2022-09-06T10:44:24.739Z,5
2022-09-06T10:45:28.281Z,5
2022-09-06T10:46:29.730Z,2
2022-09-06T10:47:20.267Z,2
2022-09-06T10:48:31.674Z,2
2022-09-06T10:49:29.979Z,2
2022-09-06T10:50:24.743Z,2
2022-09-06T10:51:29.277Z,3
2022-09-06T10:52:23.208Z,5
2022-09-06T10:53:27.550Z,3
2022-09-06T10:54:27.114Z,2
2022-09-06T10:55:31.861Z,2
2022-09-06T10:56:26.339Z,4
2022-09-06T10:58:20.434Z,5
2022-09-06T10:58:27.720Z,2
2022-09-06T10:59:36.225Z,2
2022-09-06T11:00:20.606Z,3
2022-09-06T11:01:19.809Z,3
2022-09-06T11:02:24.823Z,2
2022-09-06T11:04:09.202Z,3
2022-09-06T11:04:22.448Z,7
2022-09-06T11:05:40.441Z,7
2022-09-06T11:06:35.172Z,6
2022-09-06T11:07:25.115Z,6
2022-09-06T11:08:58.251Z,4
2022-09-06T11:09:30.075Z,4
2022-09-06T11:10:26.182Z,6
2022-09-06T11:11:27.228Z,6
2022-09-06T11:12:36.041Z,3
2022-09-06T11:13:20.095Z,2
2022-09-06T11:14:29.759Z,3
2022-09-06T11:15:20.920Z,1
2022-09-06T11:16:30.171Z,2
2022-09-06T11:17:20.271Z,3
2022-09-06T11:18:23.089Z,3
2022-09-06T11:19:33.467Z,1
2022-09-06T11:20:23.374Z,0
2022-09-06T11:21:28.900Z,1
2022-09-06T11:22:21.066Z,1
2022-09-06T11:23:34.625Z,2
2022-09-06T11:24:27.808Z,1
2022-09-06T11:25:23.131Z,0
2022-09-06T11:26:33.871Z,0
2022-09-06T11:27:27.984Z,0
2022-09-06T11:28:24.869Z,0
2022-09-06T11:29:23.071Z,0
2022-09-06T11:30:24.562Z,0
2022-09-06T11:32:33.472Z,1
2022-09-06T11:32:33.661Z,3
2022-09-06T11:33:32.891Z,3
2022-09-06T11:34:31.477Z,2
2022-09-06T11:35:24.959Z,4
2022-09-06T11:36:40.853Z,6
2022-09-06T11:37:26.596Z,3
2022-09-06T11:38:19.635Z,4
2022-09-06T11:40:37.877Z,6
2022-09-06T11:40:38.056Z,3
2022-09-06T11:41:27.858Z,0
2022-09-06T11:42:26.876Z,3
2022-09-06T11:43:20.678Z,8
2022-09-06T11:44:35.137Z,5
2022-09-06T11:45:33.594Z,5
2022-09-06T11:46:22.213Z,4
2022-09-06T11:47:22.471Z,3
2022-09-06T11:48:31.230Z,3
2022-09-06T11:49:23.938Z,1
2022-09-06T11:50:22.947Z,0
2022-09-06T11:51:31.644Z,0
2022-09-06T11:52:33.668Z,0
2022-09-06T11:53:27.057Z,0
2022-09-06T11:54:27.203Z,5
2022-09-06T11:55:29.579Z,4
2022-09-06T11:56:25.385Z,4
2022-09-06T11:57:19.913Z,5
2022-09-06T11:58:30.186Z,4
2022-09-06T11:59:29.374Z,7
2022-09-06T12:00:21.987Z,8
2022-09-06T12:01:34.695Z,4
2022-09-06T12:02:23.260Z,3
2022-09-06T12:04:08.134Z,3
2022-09-06T12:04:19.858Z,1
2022-09-06T12:05:30.363Z,0
2022-09-06T12:06:28.182Z,0
2022-09-06T12:07:26.035Z,0
2022-09-06T12:08:24.141Z,0
2022-09-06T12:09:31.386Z,1
2022-09-06T12:10:24.244Z,4
2022-09-06T12:11:19.897Z,5
2022-09-06T12:12:30.073Z,3
2022-09-06T12:13:30.334Z,2
2022-09-06T12:14:23.046Z,2
2022-09-06T12:15:29.346Z,3
2022-09-06T12:16:34.151Z,2
2022-09-06T12:17:23.678Z,0
2022-09-06T12:18:21.460Z,1
2022-09-06T12:19:35.077Z,3
2022-09-06T12:20:26.126Z,6
2022-09-06T12:21:24.020Z,4
2022-09-06T12:22:36.005Z,5
2022-09-06T12:23:26.072Z,6
2022-09-06T12:24:26.409Z,4
2022-09-06T12:25:21.344Z,5
2022-09-06T12:26:30.144Z,3
2022-09-06T12:27:41.760Z,2
2022-09-06T12:28:27.320Z,3
2022-09-06T12:29:36.135Z,2
2022-09-06T12:30:29.264Z,2
2022-09-06T12:31:20.609Z,2
2022-09-06T12:32:20.413Z,0
2022-09-06T12:33:31.093Z,2
2022-09-06T12:34:25.910Z,1
2022-09-06T12:35:59.850Z,1
2022-09-06T12:36:25.058Z,2
2022-09-06T12:37:30.771Z,5
2022-09-06T12:38:29.263Z,7
2022-09-06T12:39:31.640Z,4
2022-09-06T12:40:25.424Z,4
2022-09-06T12:41:25.969Z,3
2022-09-06T12:42:24.152Z,4
2022-09-06T12:43:25.438Z,1
2022-09-06T12:44:39.999Z,0
2022-09-06T12:45:29.153Z,0
2022-09-06T12:46:21.779Z,0
2022-09-06T12:47:22.236Z,2
2022-09-06T12:48:26.115Z,7
2022-09-06T12:49:24.445Z,8
2022-09-06T12:50:30.836Z,7
2022-09-06T12:51:30.003Z,7
2022-09-06T12:52:25.921Z,4
2022-09-06T12:53:22.737Z,4
2022-09-06T12:54:24.411Z,6
2022-09-06T12:55:25.972Z,2
2022-09-06T12:56:25.257Z,4
2022-09-06T12:57:37.499Z,5
2022-09-06T12:58:30.455Z,2
2022-09-06T12:59:27.115Z,1
2022-09-06T13:00:23.658Z,1
2022-09-06T13:01:23.109Z,0
2022-09-06T13:02:28.655Z,1
2022-09-06T13:03:26.253Z,3
2022-09-06T13:04:38.074Z,4
2022-09-06T13:05:25.001Z,4
2022-09-06T13:06:27.155Z,6
2022-09-06T13:07:30.640Z,5
2022-09-06T13:08:30.491Z,3
2022-09-06T13:09:21.928Z,2
2022-09-06T13:10:23.906Z,0
2022-09-06T13:11:33.677Z,0
2022-09-06T13:12:28.255Z,1
2022-09-06T13:13:25.640Z,4
2022-09-06T13:14:21.996Z,3
2022-09-06T13:15:32.410Z,4
2022-09-06T13:16:29.872Z,2
2022-09-06T13:17:22.435Z,1
2022-09-06T13:18:22.996Z,2
2022-09-06T13:19:29.993Z,4
2022-09-06T13:20:27.967Z,4
2022-09-06T13:21:35.465Z,3
2022-09-06T13:22:30.245Z,3
2022-09-06T13:23:32.977Z,3
2022-09-06T13:24:22.166Z,2
2022-09-06T13:25:30.180Z,2
2022-09-06T13:26:28.115Z,2
2022-09-06T13:27:24.311Z,4
2022-09-06T13:28:20.320Z,5
2022-09-06T13:29:33.606Z,3
2022-09-06T13:30:26.264Z,0
2022-09-06T13:31:23.527Z,3
2022-09-06T13:32:31.382Z,2
2022-09-06T13:33:21.786Z,2
2022-09-06T13:34:21.034Z,1
2022-09-06T13:35:20.287Z,3
2022-09-06T13:36:32.915Z,3
2022-09-06T13:37:28.226Z,3
2022-09-06T13:38:25.348Z,5
2022-09-06T13:39:26.961Z,2
2022-09-06T13:40:28.547Z,0
2022-09-06T13:41:24.157Z,2
2022-09-06T13:42:21.140Z,1
2022-09-06T13:43:36.060Z,2
2022-09-06T13:44:29.160Z,5
2022-09-06T13:45:26.142Z,3
2022-09-06T13:46:28.271Z,3
2022-09-06T13:47:20.106Z,4
2022-09-06T13:48:29.376Z,1
2022-09-06T13:49:20.127Z,0
2022-09-06T13:50:29.995Z,1
2022-09-06T13:51:25.629Z,3
2022-09-06T13:52:23.095Z,3
2022-09-06T13:53:32.362Z,4
2022-09-06T13:54:28.930Z,2
2022-09-06T13:55:30.282Z,2
2022-09-06T13:56:22.837Z,0
2022-09-06T13:57:30.524Z,0
2022-09-06T13:58:25.970Z,1
2022-09-06T13:59:26.657Z,0
2022-09-06T14:00:36.922Z,2
2022-09-06T14:01:42.245Z,3
2022-09-06T14:02:24.382Z,3
2022-09-06T14:03:22.537Z,2
2022-09-06T14:04:30.344Z,2
2022-09-06T14:05:30.030Z,1
2022-09-06T14:06:23.800Z,2
2022-09-06T14:07:32.369Z,2
2022-09-06T14:08:31.394Z,0
2022-09-06T14:09:25.356Z,2
2022-09-06T14:10:25.259Z,2
2022-09-06T14:11:20.828Z,2
2022-09-06T14:12:27.344Z,1
2022-09-06T14:13:22.374Z,0
2022-09-06T14:14:35.840Z,0
2022-09-06T14:15:28.322Z,0
2022-09-06T14:16:25.940Z,0
2022-09-06T14:17:25.380Z,2
2022-09-06T14:18:25.889Z,3
2022-09-06T14:19:22.661Z,2
2022-09-06T14:20:25.547Z,0
2022-09-06T14:21:25.281Z,1
2022-09-06T14:22:32.379Z,0
2022-09-06T14:23:26.062Z,1
2022-09-06T14:24:19.909Z,0
2022-09-06T14:25:21.399Z,0
2022-09-06T14:26:22.255Z,0
2022-09-06T14:27:23.275Z,2
2022-09-06T14:28:23.277Z,1
2022-09-06T14:29:28.208Z,2
2022-09-06T14:30:24.392Z,1
2022-09-06T14:31:20.660Z,2
2022-09-06T14:32:27.414Z,3
2022-09-06T14:33:27.207Z,2
2022-09-06T14:34:29.930Z,1
2022-09-06T14:35:26.309Z,0
2022-09-06T14:36:23.890Z,1
2022-09-06T14:37:25.651Z,1
2022-09-06T14:38:20.682Z,0
2022-09-06T14:39:21.319Z,0
2022-09-06T14:40:21.299Z,0
2022-09-06T14:41:23.587Z,1
2022-09-06T14:42:32.193Z,1
2022-09-06T14:43:28.545Z,0
2022-09-06T14:44:29.333Z,0
2022-09-06T14:45:20.163Z,0
2022-09-06T14:46:24.229Z,0
2022-09-06T14:47:21.267Z,0
2022-09-06T14:48:23.683Z,0
2022-09-06T14:49:19.855Z,1
2022-09-06T14:50:42.188Z,0
2022-09-06T14:51:24.508Z,0
2022-09-06T14:52:20.365Z,0
2022-09-06T14:53:40.134Z,0
2022-09-06T14:54:29.121Z,0
2022-09-06T14:55:32.026Z,0
2022-09-06T14:56:26.252Z,0
2022-09-06T14:57:22.549Z,0
2022-09-06T14:58:26.183Z,0
2022-09-06T14:59:21.293Z,0
2022-09-06T15:00:35.907Z,0
2022-09-06T15:01:26.144Z,2
2022-09-06T15:02:23.078Z,1
2022-09-06T15:03:19.630Z,0
2022-09-06T15:04:29.894Z,1
2022-09-06T15:05:24.169Z,3
2022-09-06T15:06:27.040Z,2
2022-09-06T15:07:35.025Z,2
2022-09-06T15:08:20.273Z,0
2022-09-06T15:09:24.358Z,0
2022-09-06T15:10:27.293Z,0
2022-09-06T15:11:24.683Z,0
2022-09-06T15:12:26.036Z,0
2022-09-06T15:13:21.048Z,0
2022-09-06T15:14:30.380Z,0
2022-09-06T15:15:21.308Z,0
2022-09-06T15:16:23.770Z,3
2022-09-06T15:17:31.504Z,2
2022-09-06T15:18:20.471Z,0
2022-09-06T15:19:24.365Z,0
2022-09-06T15:20:20.073Z,0
2022-09-06T15:21:24.619Z,2
2022-09-06T15:22:28.957Z,2
2022-09-06T15:23:25.856Z,2
2022-09-06T15:24:33.172Z,1
2022-09-06T15:25:25.918Z,0
2022-09-06T15:26:26.209Z,0
2022-09-06T15:27:19.901Z,3
2022-09-06T15:28:31.745Z,6
2022-09-06T15:29:29.666Z,2
2022-09-06T15:30:25.620Z,0
2022-09-06T15:31:32.244Z,1
2022-09-06T15:32:23.172Z,4
2022-09-06T15:33:26.550Z,5
2022-09-06T15:34:23.108Z,4
2022-09-06T15:35:33.136Z,2
2022-09-06T15:36:26.297Z,1
2022-09-06T15:37:22.780Z,0
2022-09-06T15:38:26.797Z,0
2022-09-06T15:39:30.742Z,0
2022-09-06T15:40:29.165Z,0
2022-09-06T15:41:20.482Z,0
2022-09-06T15:42:23.360Z,0
2022-09-06T15:43:27.205Z,0
2022-09-06T15:44:22.799Z,0
2022-09-06T15:45:37.651Z,0
2022-09-06T15:46:29.943Z,0
2022-09-06T15:47:24.293Z,0
2022-09-06T15:48:25.491Z,0
2022-09-06T15:49:28.024Z,0
2022-09-06T15:50:49.891Z,0
2022-09-06T15:51:22.870Z,0
2022-09-06T15:52:35.717Z,0
2022-09-06T15:53:32.022Z,1
2022-09-06T15:54:27.464Z,0
2022-09-06T15:55:22.068Z,1
2022-09-06T15:56:20.592Z,1
2022-09-06T15:57:25.510Z,0
2022-09-06T15:58:22.321Z,0
2022-09-06T15:59:33.716Z,0
2022-09-06T16:00:20.669Z,0
2022-09-06T16:01:28.607Z,0
2022-09-06T16:02:20.588Z,0
2022-09-06T16:03:25.112Z,0
2022-09-06T16:04:28.212Z,0
2022-09-06T16:06:28.150Z,0
2022-09-06T16:06:28.972Z,0
2022-09-06T16:07:32.783Z,0
2022-09-06T16:08:27.031Z,0
2022-09-06T16:09:22.000Z,0
2022-09-06T16:10:29.941Z,0
2022-09-06T16:11:21.894Z,0
2022-09-06T16:12:24.157Z,0
2022-09-06T16:13:21.282Z,0
2022-09-06T16:14:32.448Z,0
2022-09-06T16:15:24.321Z,0
2022-09-06T16:16:22.989Z,0
2022-09-06T16:17:24.198Z,0
2022-09-06T16:18:25.951Z,0
2022-09-06T16:19:22.789Z,0
2022-09-06T16:20:24.769Z,0
2022-09-06T16:21:28.603Z,0
2022-09-06T16:22:24.079Z,0
2022-09-06T16:23:21.522Z,0
2022-09-06T16:24:31.736Z,0
2022-09-06T16:25:28.441Z,0
2022-09-06T16:26:23.991Z,0
2022-09-06T16:27:23.276Z,0